createdAt,value
2019-03-29T00:02:58.371Z,9.79
2019-03-29T00:08:09.551Z,9.73
2019-03-29T00:13:17.326Z,9.66
2019-03-29T00:18:25.434Z,9.62
2019-03-29T00:23:33.222Z,9.61
2019-03-29T00:28:40.980Z,9.78
2019-03-29T00:33:49.405Z,9.79
2019-03-29T00:38:59.079Z,9.78
2019-03-29T00:44:06.870Z,9.67
2019-03-29T00:49:14.972Z,9.57
2019-03-29T00:54:23.790Z,9.67
2019-03-29T00:59:31.544Z,9.58
2019-03-29T01:04:40.755Z,9.73
2019-03-29T01:09:48.844Z,9.56
2019-03-29T01:14:57.443Z,9.59
2019-03-29T01:20:08.222Z,9.48
2019-03-29T01:25:15.838Z,9.68
2019-03-29T01:30:23.533Z,9.74
2019-03-29T01:35:32.060Z,9.61
2019-03-29T01:40:40.149Z,9.60
2019-03-29T01:45:48.319Z,9.56
2019-03-29T01:50:58.680Z,9.62
2019-03-29T01:56:09.489Z,9.61
2019-03-29T02:01:17.224Z,9.56
2019-03-29T02:06:25.790Z,9.71
2019-03-29T02:11:33.790Z,9.59
2019-03-29T02:16:41.531Z,9.53
2019-03-29T02:21:49.455Z,9.57
2019-03-29T02:26:57.468Z,9.55
2019-03-29T02:32:07.086Z,9.63
2019-03-29T02:37:15.259Z,9.61
2019-03-29T02:42:23.341Z,9.57
2019-03-29T02:47:31.009Z,9.53
2019-03-29T02:52:39.225Z,9.59
2019-03-29T02:57:46.925Z,9.63
2019-03-29T03:02:56.229Z,9.57
2019-03-29T03:08:07.802Z,9.49
2019-03-29T03:13:16.057Z,9.62
2019-03-29T03:18:23.759Z,9.52
2019-03-29T03:23:32.653Z,9.59
2019-03-29T03:28:40.618Z,9.46
2019-03-29T03:33:48.389Z,9.62
2019-03-29T03:38:56.525Z,9.72
2019-03-29T03:44:07.414Z,9.57
2019-03-29T03:49:15.185Z,9.44
2019-03-29T03:54:23.552Z,9.57
2019-03-29T03:59:32.686Z,9.58
2019-03-29T04:04:40.837Z,9.52
2019-03-29T04:09:50.748Z,9.56
2019-03-29T04:14:59.767Z,9.51
2019-03-29T04:20:10.516Z,9.50
2019-03-29T04:25:18.500Z,9.42
2019-03-29T04:30:26.210Z,9.47
2019-03-29T04:35:33.999Z,9.39
2019-03-29T04:40:41.919Z,9.51
2019-03-29T04:45:50.053Z,9.47
2019-03-29T04:50:57.884Z,9.49
2019-03-29T04:56:08.785Z,8.88
2019-03-29T05:01:17.423Z,9.22
2019-03-29T05:06:25.472Z,9.46
2019-03-29T05:11:33.967Z,9.25
2019-03-29T05:16:42.432Z,9.36
2019-03-29T05:21:50.319Z,9.24
2019-03-29T05:26:58.653Z,9.33
2019-03-29T05:32:10.519Z,9.53
2019-03-29T05:37:18.351Z,9.59
2019-03-29T05:42:26.477Z,9.65
2019-03-29T05:47:34.707Z,9.73
2019-03-29T05:52:42.417Z,9.82
2019-03-29T05:57:50.963Z,9.75
2019-03-29T06:02:58.615Z,9.87
2019-03-29T06:08:09.679Z,9.60
2019-03-29T06:13:18.209Z,9.55
2019-03-29T06:18:26.232Z,9.73
2019-03-29T06:23:34.837Z,9.25
2019-03-29T06:28:43.482Z,9.22
2019-03-29T06:33:51.691Z,9.04
2019-03-29T06:39:01.186Z,9.82
2019-03-29T06:44:11.245Z,10.13
2019-03-29T06:49:19.338Z,10.29
2019-03-29T06:54:27.047Z,9.93
2019-03-29T06:59:35.190Z,10.63
2019-03-29T07:04:42.919Z,9.99
2019-03-29T07:09:51.235Z,10.66
2019-03-29T07:15:00.941Z,10.83
2019-03-29T07:20:12.158Z,10.93
2019-03-29T07:25:19.958Z,10.45
2019-03-29T07:30:28.127Z,10.48
2019-03-29T07:47:07.062Z,11.44
2019-03-29T07:52:15.324Z,11.43
2019-03-29T07:57:24.092Z,11.46
2019-03-29T08:02:35.134Z,10.89
2019-03-29T08:07:43.876Z,11.19
2019-03-29T08:12:51.718Z,11.55
2019-03-29T08:18:01.697Z,12.10
2019-03-29T08:23:14.338Z,12.28
2019-03-29T08:28:22.103Z,12.05
2019-03-29T08:33:30.145Z,12.14
2019-03-29T08:38:37.871Z,11.91
2019-03-29T08:43:46.601Z,11.47
2019-03-29T08:48:54.935Z,12.23
2019-03-29T08:54:07.526Z,11.60
2019-03-29T08:59:17.613Z,11.38
2019-03-29T09:04:26.433Z,12.05
2019-03-29T09:09:37.613Z,12.13
2019-03-29T09:14:45.422Z,12.34
2019-03-29T09:19:54.081Z,12.44
2019-03-29T09:25:02.594Z,11.86
2019-03-29T09:30:10.766Z,11.43
2019-03-29T09:35:18.957Z,12.02
2019-03-29T09:40:26.787Z,12.42
2019-03-29T09:45:34.884Z,12.77
2019-03-29T09:50:46.710Z,13.21
2019-03-29T09:55:53.617Z,13.22
2019-03-29T10:01:02.744Z,13.10
2019-03-29T10:06:10.750Z,13.93
2019-03-29T10:11:21.943Z,12.27
2019-03-29T10:16:27.944Z,12.85
2019-03-29T10:21:37.310Z,12.09
2019-03-29T10:26:45.915Z,12.15
2019-03-29T10:31:53.647Z,11.74
2019-03-29T11:10:39.013Z,12.01
2019-03-29T11:15:46.887Z,11.75
2019-03-29T11:20:55.380Z,12.80
2019-03-29T11:26:04.924Z,13.40
2019-03-29T11:31:12.400Z,12.60
